createdAt,value
2022-11-17T00:00:42.683Z,9.68
2022-11-17T00:03:14.789Z,9.66
2022-11-17T00:05:42.969Z,9.66
2022-11-17T00:08:11.056Z,9.59
2022-11-17T00:10:39.017Z,9.55
2022-11-17T00:13:24.692Z,9.54
2022-11-17T00:15:52.715Z,9.49
2022-11-17T00:18:39.503Z,9.47
2022-11-17T00:21:21.353Z,9.43
2022-11-17T00:23:50.363Z,9.43
2022-11-17T00:26:20.991Z,9.49
2022-11-17T00:28:49.397Z,9.56
2022-11-17T00:31:34.852Z,9.60
2022-11-17T00:34:07.314Z,9.51
2022-11-17T00:36:38.704Z,9.51
2022-11-17T00:39:07.271Z,9.66
2022-11-17T00:41:35.314Z,9.67
2022-11-17T00:44:03.660Z,9.61
2022-11-17T00:46:31.794Z,9.56
2022-11-17T00:49:00.040Z,9.56
2022-11-17T00:51:29.550Z,9.56
2022-11-17T00:53:57.905Z,9.57
2022-11-17T00:56:26.719Z,9.57
2022-11-17T00:58:54.885Z,9.59
2022-11-17T01:01:23.428Z,9.59
2022-11-17T01:03:51.484Z,9.63
2022-11-17T01:06:22.580Z,9.64
2022-11-17T01:08:51.988Z,9.61
2022-11-17T01:11:21.151Z,9.63
2022-11-17T01:13:49.648Z,9.63
2022-11-17T01:16:19.395Z,9.64
2022-11-17T01:18:49.027Z,9.64
2022-11-17T01:21:19.890Z,9.75
2022-11-17T01:23:50.112Z,9.73
2022-11-17T01:26:21.567Z,9.66
2022-11-17T01:28:50.442Z,9.56
2022-11-17T01:31:20.532Z,9.53
2022-11-17T01:33:49.459Z,9.59
2022-11-17T01:36:20.943Z,9.64
2022-11-17T01:38:49.133Z,9.63
2022-11-17T01:41:19.959Z,9.55
2022-11-17T01:43:50.219Z,9.54
2022-11-17T01:46:30.275Z,9.52
2022-11-17T01:49:04.253Z,9.47
2022-11-17T01:51:34.455Z,9.50
2022-11-17T01:54:03.707Z,9.66
2022-11-17T01:56:40.211Z,9.55
2022-11-17T01:59:13.933Z,9.52
2022-11-17T02:01:55.854Z,9.38
2022-11-17T02:04:27.244Z,9.29
2022-11-17T02:07:02.660Z,9.19
2022-11-17T02:09:31.067Z,9.11
2022-11-17T02:12:00.704Z,9.11
2022-11-17T02:14:29.542Z,9.06
2022-11-17T02:17:01.355Z,9.09
2022-11-17T02:19:38.221Z,9.10
2022-11-17T02:22:34.820Z,9.09
2022-11-17T02:25:30.013Z,9.07
2022-11-17T02:28:13.412Z,9.05
2022-11-17T02:30:50.739Z,9.00
2022-11-17T02:33:26.573Z,8.97
2022-11-17T02:36:03.088Z,8.89
2022-11-17T02:38:36.584Z,8.84
2022-11-17T02:41:11.409Z,8.78
2022-11-17T02:44:03.623Z,8.79
2022-11-17T02:46:42.153Z,8.86
2022-11-17T02:49:17.135Z,8.81
2022-11-17T02:51:46.803Z,8.77
2022-11-17T02:54:15.735Z,8.71
2022-11-17T02:56:44.271Z,8.79
2022-11-17T02:59:16.732Z,8.77
2022-11-17T03:02:16.707Z,8.72
2022-11-17T03:04:54.104Z,8.69
2022-11-17T03:07:38.289Z,8.64
2022-11-17T03:10:15.733Z,8.59
2022-11-17T03:12:51.193Z,8.57
2022-11-17T03:15:29.337Z,8.61
2022-11-17T03:18:07.770Z,8.59
2022-11-17T03:20:43.416Z,8.61
2022-11-17T03:23:18.000Z,8.60
2022-11-17T03:25:51.514Z,8.56
2022-11-17T03:28:23.075Z,8.60
2022-11-17T03:30:55.144Z,8.55
2022-11-17T03:33:25.246Z,8.54
2022-11-17T03:36:03.914Z,8.63
2022-11-17T03:38:36.399Z,8.64
2022-11-17T03:41:06.592Z,8.67
2022-11-17T03:43:34.840Z,8.68
2022-11-17T03:46:09.714Z,8.66
2022-11-17T03:48:42.938Z,8.63
2022-11-17T03:51:15.446Z,8.49
2022-11-17T03:53:44.241Z,8.41
2022-11-17T03:56:24.179Z,8.40
2022-11-17T03:58:56.993Z,8.51
2022-11-17T04:01:29.032Z,8.47
2022-11-17T04:03:57.554Z,8.47
2022-11-17T04:06:25.597Z,8.44
2022-11-17T04:08:53.665Z,8.39
2022-11-17T04:11:39.252Z,8.46
2022-11-17T04:14:24.564Z,8.40
2022-11-17T04:16:53.982Z,8.34
2022-11-17T04:19:22.028Z,8.35
2022-11-17T04:21:50.276Z,8.38
2022-11-17T04:24:18.380Z,8.41
2022-11-17T04:27:03.987Z,8.38
2022-11-17T04:29:34.173Z,8.45
2022-11-17T04:32:04.611Z,8.51
2022-11-17T04:34:32.618Z,8.45
2022-11-17T04:37:05.326Z,8.46
2022-11-17T04:39:38.806Z,8.49
2022-11-17T04:42:05.879Z,8.52
2022-11-17T04:44:33.993Z,8.47
2022-11-17T04:47:03.680Z,8.51
2022-11-17T04:49:33.940Z,8.57
2022-11-17T04:52:02.108Z,8.58
2022-11-17T04:54:31.299Z,8.49
2022-11-17T04:56:59.328Z,8.54
2022-11-17T04:59:27.451Z,8.59
2022-11-17T05:01:55.487Z,8.51
2022-11-17T05:04:40.823Z,8.47
2022-11-17T05:07:10.795Z,8.45
2022-11-17T05:09:38.836Z,8.48
2022-11-17T05:12:24.771Z,8.43
2022-11-17T05:14:52.898Z,8.42
2022-11-17T05:17:21.112Z,8.45
2022-11-17T05:19:49.995Z,8.47
2022-11-17T05:22:40.263Z,8.49
2022-11-17T05:25:09.406Z,8.43
2022-11-17T05:27:37.708Z,8.45
2022-11-17T05:30:08.621Z,8.45
2022-11-17T05:32:36.708Z,8.49
2022-11-17T05:35:05.028Z,8.60
2022-11-17T05:37:34.461Z,8.58
2022-11-17T05:40:02.457Z,8.58
2022-11-17T05:42:30.581Z,8.61
2022-11-17T05:44:58.723Z,8.67
2022-11-17T05:47:26.748Z,8.62
2022-11-17T05:49:54.787Z,8.61
2022-11-17T05:52:22.831Z,8.66
2022-11-17T05:54:52.347Z,8.64
2022-11-17T05:57:27.154Z,8.67
2022-11-17T06:00:00.124Z,8.89
2022-11-17T06:02:34.246Z,8.85
2022-11-17T06:05:03.671Z,8.92
2022-11-17T06:07:31.944Z,8.89
2022-11-17T06:10:01.500Z,8.90
2022-11-17T06:12:29.492Z,9.00
2022-11-17T06:14:57.707Z,9.11
2022-11-17T06:17:32.042Z,9.11
2022-11-17T06:20:04.148Z,9.01
2022-11-17T06:22:32.918Z,9.06
2022-11-17T06:25:04.851Z,9.15
2022-11-17T06:27:33.899Z,9.22
2022-11-17T06:30:04.737Z,9.18
2022-11-17T06:32:34.128Z,9.05
2022-11-17T06:35:04.580Z,9.08
2022-11-17T06:37:32.799Z,9.18
2022-11-17T06:40:02.681Z,9.32
2022-11-17T06:42:48.459Z,9.08
2022-11-17T06:45:16.721Z,9.05
2022-11-17T06:47:44.762Z,9.03
2022-11-17T06:50:13.246Z,9.01
2022-11-17T06:52:41.390Z,8.99
2022-11-17T06:55:11.261Z,9.06
2022-11-17T06:57:39.298Z,9.00
2022-11-17T07:00:08.659Z,9.02
2022-11-17T07:02:37.834Z,9.05
2022-11-17T07:05:06.557Z,9.05
2022-11-17T07:07:34.644Z,9.06
2022-11-17T07:10:03.070Z,9.09
2022-11-17T07:12:32.605Z,9.12
2022-11-17T07:15:00.700Z,9.17
2022-11-17T07:17:29.716Z,9.19
2022-11-17T07:19:57.903Z,9.17
2022-11-17T07:22:26.137Z,9.14
2022-11-17T07:24:54.152Z,9.13
2022-11-17T07:27:22.227Z,9.13
2022-11-17T07:29:51.747Z,9.14
2022-11-17T07:32:19.940Z,9.17
2022-11-17T07:34:48.027Z,9.23
2022-11-17T07:37:16.091Z,9.30
2022-11-17T07:39:44.245Z,9.42
2022-11-17T07:42:15.077Z,9.49
2022-11-17T07:44:43.215Z,9.47
2022-11-17T07:47:13.224Z,9.46
2022-11-17T07:49:41.325Z,9.47
2022-11-17T07:52:09.649Z,9.52
2022-11-17T07:54:38.064Z,9.58
2022-11-17T07:57:06.193Z,9.58
2022-11-17T07:59:34.439Z,9.63
2022-11-17T08:02:02.524Z,9.52
2022-11-17T08:04:32.102Z,9.63
2022-11-17T08:07:00.337Z,9.46
2022-11-17T08:09:28.534Z,9.47
2022-11-17T08:11:57.765Z,9.50
2022-11-17T08:14:25.860Z,9.55
2022-11-17T08:16:53.952Z,9.60
2022-11-17T08:19:22.049Z,9.58
2022-11-17T08:21:51.728Z,9.60
2022-11-17T08:24:19.861Z,9.54
2022-11-17T08:26:47.951Z,9.48
2022-11-17T08:29:16.034Z,9.51
2022-11-17T08:31:46.265Z,9.56
2022-11-17T08:34:14.798Z,9.53
2022-11-17T08:36:42.868Z,9.60
2022-11-17T08:39:12.568Z,9.53
2022-11-17T08:41:40.653Z,9.51
2022-11-17T08:44:08.811Z,9.58
2022-11-17T08:46:36.963Z,9.64
2022-11-17T08:49:05.019Z,9.65
2022-11-17T08:51:33.371Z,9.56
2022-11-17T08:54:01.520Z,9.54
2022-11-17T08:56:31.109Z,9.49
2022-11-17T08:58:59.655Z,9.44
2022-11-17T09:01:27.730Z,9.42
2022-11-17T09:03:56.362Z,9.44
2022-11-17T09:06:24.553Z,9.49
2022-11-17T09:08:54.918Z,9.56
2022-11-17T09:11:23.590Z,9.67
2022-11-17T09:13:53.248Z,9.57
2022-11-17T09:16:24.067Z,9.59
2022-11-17T09:18:56.879Z,9.72
2022-11-17T09:21:26.214Z,9.72
2022-11-17T09:23:54.637Z,9.69
2022-11-17T09:26:23.140Z,9.83
2022-11-17T09:28:53.284Z,9.85
2022-11-17T09:31:23.232Z,9.75
2022-11-17T09:33:51.442Z,9.78
2022-11-17T09:36:19.958Z,9.85
2022-11-17T09:38:48.189Z,9.95
2022-11-17T09:41:28.706Z,10.13
2022-11-17T09:44:07.930Z,10.19
2022-11-17T09:46:51.193Z,10.23
2022-11-17T09:49:31.931Z,10.34
2022-11-17T09:52:04.761Z,10.45
2022-11-17T09:54:43.298Z,10.53
2022-11-17T09:57:23.012Z,10.58
2022-11-17T10:00:03.451Z,10.56
2022-11-17T10:02:31.730Z,10.57
2022-11-17T10:05:00.482Z,10.69
2022-11-17T10:07:33.327Z,10.93
2022-11-17T10:10:04.668Z,11.08
2022-11-17T10:12:45.986Z,11.08
2022-11-17T10:15:24.702Z,11.21
2022-11-17T10:17:52.972Z,11.25
2022-11-17T10:20:21.633Z,11.22
2022-11-17T10:22:49.879Z,11.31
2022-11-17T10:25:37.993Z,11.50
2022-11-17T10:28:09.428Z,11.64
2022-11-17T10:30:38.859Z,11.67
2022-11-17T10:33:07.084Z,11.67
2022-11-17T10:35:36.533Z,11.70
2022-11-17T10:38:06.993Z,11.69
2022-11-17T10:40:48.672Z,11.70
2022-11-17T10:43:27.483Z,11.70
2022-11-17T10:45:59.271Z,11.85
2022-11-17T10:48:32.440Z,12.22
2022-11-17T10:51:02.138Z,12.13
2022-11-17T10:53:45.072Z,12.13
2022-11-17T10:56:19.099Z,12.20
2022-11-17T10:59:03.363Z,12.03
2022-11-17T11:01:35.559Z,12.04
2022-11-17T11:04:04.376Z,12.11
2022-11-17T11:06:33.773Z,12.15
2022-11-17T11:09:04.873Z,12.20
2022-11-17T11:11:45.240Z,12.24
2022-11-17T11:14:22.436Z,12.36
2022-11-17T11:16:52.287Z,12.51
2022-11-17T11:19:21.741Z,12.80
2022-11-17T11:22:23.434Z,12.96
2022-11-17T11:24:57.360Z,13.14
2022-11-17T11:27:44.787Z,13.18
2022-11-17T11:30:14.953Z,13.29
2022-11-17T11:32:59.357Z,13.15
2022-11-17T11:35:52.944Z,13.05
2022-11-17T11:38:36.378Z,13.11
2022-11-17T11:41:35.749Z,13.17
2022-11-17T11:44:31.010Z,13.23
2022-11-17T11:47:10.089Z,13.34
2022-11-17T11:49:43.639Z,13.44
2022-11-17T11:52:17.583Z,13.52
2022-11-17T11:54:51.891Z,13.56
2022-11-17T11:57:26.118Z,13.60
2022-11-17T12:00:03.754Z,13.60
2022-11-17T12:02:43.506Z,13.74
2022-11-17T12:05:22.992Z,13.79
2022-11-17T12:07:55.759Z,13.83
2022-11-17T12:10:32.919Z,13.93
2022-11-17T12:13:01.687Z,14.04
2022-11-17T12:15:37.491Z,14.14
2022-11-17T12:18:13.325Z,14.18
2022-11-17T12:20:58.186Z,14.33
2022-11-17T12:23:39.435Z,13.95
2022-11-17T12:26:07.660Z,13.93
2022-11-17T12:28:38.172Z,13.98
2022-11-17T12:31:10.435Z,13.93
2022-11-17T12:34:11.651Z,13.87
2022-11-17T12:36:41.474Z,13.88
2022-11-17T12:39:48.156Z,13.91
2022-11-17T12:42:16.288Z,13.90
2022-11-17T12:45:00.617Z,13.93
2022-11-17T12:47:30.838Z,13.88
2022-11-17T12:50:37.624Z,13.82
2022-11-17T12:53:26.775Z,13.74
2022-11-17T12:56:25.913Z,13.70
2022-11-17T12:59:04.806Z,13.72
2022-11-17T13:01:42.540Z,13.72
2022-11-17T13:04:14.871Z,13.73
2022-11-17T13:07:02.265Z,13.80
2022-11-17T13:09:34.652Z,13.73
2022-11-17T13:12:05.547Z,13.70
2022-11-17T13:14:34.979Z,13.66
2022-11-17T13:17:03.893Z,13.76
2022-11-17T13:19:35.895Z,13.69
2022-11-17T13:22:06.730Z,13.59
2022-11-17T13:24:38.374Z,13.52
2022-11-17T13:27:17.729Z,13.45
2022-11-17T13:29:45.916Z,13.45
2022-11-17T13:32:16.980Z,13.36
2022-11-17T13:34:51.051Z,13.35
2022-11-17T13:37:22.182Z,13.38
2022-11-17T13:40:02.955Z,13.41
2022-11-17T13:42:33.310Z,13.43
2022-11-17T13:45:05.640Z,13.46
2022-11-17T13:47:46.373Z,13.43
2022-11-17T13:50:39.619Z,13.36
2022-11-17T13:53:26.431Z,13.31
2022-11-17T13:55:56.092Z,13.27
2022-11-17T13:58:40.948Z,13.23
2022-11-17T14:01:13.715Z,13.22
2022-11-17T14:03:44.557Z,13.21
2022-11-17T14:06:14.508Z,13.17
2022-11-17T14:08:44.908Z,13.19
2022-11-17T14:11:22.740Z,13.18
2022-11-17T14:13:52.808Z,13.14
2022-11-17T14:16:27.868Z,13.10
2022-11-17T14:18:59.292Z,13.09
2022-11-17T14:21:27.817Z,13.11
2022-11-17T14:24:13.786Z,13.10
2022-11-17T14:26:45.518Z,13.07
2022-11-17T14:29:14.870Z,13.04
2022-11-17T14:31:43.264Z,13.05
2022-11-17T14:34:12.322Z,13.12
2022-11-17T14:36:41.730Z,13.15
2022-11-17T14:39:17.705Z,13.07
2022-11-17T14:41:48.960Z,13.02
2022-11-17T14:44:18.308Z,12.97
2022-11-17T14:46:46.388Z,12.92
2022-11-17T14:49:14.718Z,12.88
2022-11-17T14:51:42.973Z,12.84
2022-11-17T14:54:11.310Z,12.81
2022-11-17T14:56:39.353Z,12.80
2022-11-17T14:59:11.994Z,12.77
2022-11-17T15:01:40.184Z,12.71
2022-11-17T15:04:34.641Z,12.67
2022-11-17T15:06:57.244Z,12.65
2022-11-17T15:09:25.313Z,12.63
2022-11-17T15:11:53.435Z,12.60
2022-11-17T15:14:23.007Z,12.55
2022-11-17T15:16:51.059Z,12.53
2022-11-17T15:19:19.250Z,12.55
2022-11-17T15:21:47.339Z,12.62
2022-11-17T15:24:15.712Z,12.73
2022-11-17T15:26:44.567Z,12.63
2022-11-17T15:29:16.154Z,12.52
2022-11-17T15:31:46.302Z,12.44
2022-11-17T15:34:20.107Z,12.39
2022-11-17T15:36:48.862Z,12.36
2022-11-17T15:39:17.407Z,12.34
2022-11-17T15:41:46.046Z,12.33
2022-11-17T15:44:14.599Z,12.31
2022-11-17T15:46:47.143Z,12.30
2022-11-17T15:49:17.690Z,12.27
2022-11-17T15:51:46.238Z,12.25
2022-11-17T15:54:20.063Z,12.24
2022-11-17T15:56:49.233Z,12.22
2022-11-17T15:59:17.693Z,12.22
2022-11-17T16:01:46.285Z,12.20
2022-11-17T16:04:16.712Z,12.21
2022-11-17T16:06:47.357Z,12.21
2022-11-17T16:09:17.184Z,12.22
2022-11-17T16:11:45.899Z,12.32
2022-11-17T16:14:15.094Z,12.35
2022-11-17T16:16:43.874Z,12.31
2022-11-17T16:19:11.984Z,12.29
2022-11-17T16:21:41.439Z,12.44
2022-11-17T16:24:11.932Z,12.34
2022-11-17T16:26:40.107Z,12.21
2022-11-17T16:29:09.879Z,12.21
2022-11-17T16:31:39.084Z,12.29
2022-11-17T16:34:09.285Z,12.17
2022-11-17T16:36:40.520Z,12.05
2022-11-17T16:39:12.589Z,11.91
2022-11-17T16:41:42.315Z,11.83
2022-11-17T16:44:12.419Z,11.73
2022-11-17T16:46:43.392Z,11.67
2022-11-17T16:49:14.480Z,11.75
2022-11-17T16:51:50.779Z,11.66
2022-11-17T16:54:21.221Z,11.61
2022-11-17T16:56:49.869Z,11.64
2022-11-17T16:59:18.667Z,11.55
2022-11-17T17:01:47.707Z,11.74
2022-11-17T17:04:16.149Z,11.69
2022-11-17T17:06:46.099Z,11.72
2022-11-17T17:09:15.910Z,11.73
2022-11-17T17:11:46.024Z,11.61
2022-11-17T17:14:15.828Z,11.44
2022-11-17T17:16:44.460Z,11.40
2022-11-17T17:19:14.806Z,11.39
2022-11-17T17:21:45.716Z,11.32
2022-11-17T17:24:14.357Z,11.38
2022-11-17T17:26:43.143Z,11.27
2022-11-17T17:29:15.816Z,11.26
2022-11-17T17:31:44.386Z,11.34
2022-11-17T17:34:14.649Z,11.26
2022-11-17T17:36:43.282Z,11.20
2022-11-17T17:39:16.051Z,11.13
2022-11-17T17:41:46.257Z,11.11
2022-11-17T17:44:18.132Z,11.05
2022-11-17T17:46:47.361Z,11.00
2022-11-17T17:49:15.983Z,10.98
2022-11-17T17:51:45.301Z,10.92
2022-11-17T17:54:17.217Z,10.94
2022-11-17T17:56:45.451Z,10.91
2022-11-17T17:59:14.657Z,10.97
2022-11-17T18:01:46.274Z,11.01
2022-11-17T18:04:16.505Z,10.92
2022-11-17T18:06:48.475Z,10.85
2022-11-17T18:09:20.302Z,10.82
2022-11-17T18:11:50.536Z,10.77
2022-11-17T18:14:24.146Z,10.73
2022-11-17T18:16:54.807Z,10.83
2022-11-17T18:19:28.281Z,10.82
2022-11-17T18:21:59.635Z,10.80
2022-11-17T18:24:28.323Z,10.76
2022-11-17T18:26:56.706Z,10.70
2022-11-17T18:29:25.490Z,10.74
2022-11-17T18:31:55.133Z,10.69
2022-11-17T18:34:25.678Z,10.60
2022-11-17T18:36:56.497Z,10.51
2022-11-17T18:39:25.069Z,10.51
2022-11-17T18:41:53.194Z,10.49
2022-11-17T18:44:21.448Z,10.45
2022-11-17T18:46:50.095Z,10.41
2022-11-17T18:49:20.020Z,10.39
2022-11-17T18:51:48.894Z,10.36
2022-11-17T18:54:17.222Z,10.33
2022-11-17T18:56:45.423Z,10.32
2022-11-17T18:59:14.569Z,10.26
2022-11-17T19:01:44.183Z,10.24
2022-11-17T19:04:14.998Z,10.20
2022-11-17T19:06:44.693Z,10.21
2022-11-17T19:09:14.213Z,10.20
2022-11-17T19:11:42.564Z,10.16
2022-11-17T19:14:10.948Z,10.15
2022-11-17T19:16:44.583Z,10.16
2022-11-17T19:19:14.576Z,10.39
2022-11-17T19:21:44.609Z,10.26
2022-11-17T19:24:14.069Z,10.13
2022-11-17T19:26:42.922Z,10.13
2022-11-17T19:29:17.059Z,10.21
2022-11-17T19:31:45.831Z,10.17
2022-11-17T19:34:13.943Z,10.11
2022-11-17T19:36:43.021Z,10.11
2022-11-17T19:39:14.899Z,10.16
2022-11-17T19:41:43.783Z,10.22
2022-11-17T19:44:12.447Z,10.10
2022-11-17T19:46:40.669Z,10.01
2022-11-17T19:49:08.896Z,10.16
2022-11-17T19:51:38.216Z,10.23
2022-11-17T19:54:08.829Z,10.19
2022-11-17T19:56:38.536Z,10.13
2022-11-17T19:59:09.759Z,10.40
2022-11-17T20:01:39.239Z,10.29
2022-11-17T20:04:07.764Z,10.18
2022-11-17T20:06:38.321Z,10.05
2022-11-17T20:09:11.478Z,10.03
2022-11-17T20:11:42.246Z,10.04
2022-11-17T20:14:10.887Z,10.00
2022-11-17T20:16:39.698Z,10.01
2022-11-17T20:19:08.366Z,9.92
2022-11-17T20:21:36.712Z,9.89
2022-11-17T20:24:05.752Z,9.87
2022-11-17T20:26:35.603Z,9.84
2022-11-17T20:29:05.059Z,9.82
2022-11-17T20:31:34.928Z,9.79
2022-11-17T20:34:05.976Z,9.82
2022-11-17T20:36:35.307Z,9.78
2022-11-17T20:39:06.421Z,9.78
2022-11-17T20:41:35.137Z,9.75
2022-11-17T20:44:05.105Z,9.72
2022-11-17T20:46:33.360Z,9.68
2022-11-17T20:49:01.508Z,9.70
2022-11-17T20:51:29.729Z,9.77
2022-11-17T20:53:57.861Z,9.72
2022-11-17T20:56:25.915Z,9.75
2022-11-17T20:58:54.495Z,9.69
2022-11-17T21:01:24.436Z,9.68
2022-11-17T21:03:53.463Z,9.65
2022-11-17T21:06:23.182Z,9.63
2022-11-17T21:08:51.618Z,9.59
2022-11-17T21:11:35.248Z,9.64
2022-11-17T21:14:03.833Z,9.60
2022-11-17T21:16:33.942Z,9.56
2022-11-17T21:19:02.123Z,9.52
2022-11-17T21:21:30.508Z,9.49
2022-11-17T21:23:58.833Z,9.55
2022-11-17T21:26:27.896Z,9.48
2022-11-17T21:28:59.333Z,9.49
2022-11-17T21:31:33.088Z,9.43
2022-11-17T21:34:03.461Z,9.37
2022-11-17T21:36:32.945Z,9.35
2022-11-17T21:39:01.244Z,9.35
2022-11-17T21:41:31.975Z,9.38
2022-11-17T21:44:01.999Z,9.34
2022-11-17T21:46:33.984Z,9.33
2022-11-17T21:49:02.172Z,9.32
2022-11-17T21:51:33.518Z,9.22
2022-11-17T21:54:03.860Z,9.25
2022-11-17T21:56:32.232Z,9.33
2022-11-17T21:59:01.983Z,9.25
2022-11-17T22:01:30.709Z,9.21
2022-11-17T22:04:00.298Z,9.23
2022-11-17T22:06:28.988Z,9.19
2022-11-17T22:08:57.800Z,9.17
2022-11-17T22:11:36.999Z,9.27
2022-11-17T22:14:08.189Z,9.19
2022-11-17T22:16:37.217Z,9.14
2022-11-17T22:19:09.126Z,9.10
2022-11-17T22:21:38.316Z,9.12
2022-11-17T22:24:08.614Z,9.08
2022-11-17T22:26:38.434Z,9.08
2022-11-17T22:29:08.000Z,9.05
2022-11-17T22:31:36.260Z,9.12
2022-11-17T22:34:04.586Z,9.10
2022-11-17T22:36:34.030Z,9.03
2022-11-17T22:39:02.134Z,9.01
2022-11-17T22:41:30.423Z,9.03
2022-11-17T22:43:59.128Z,8.93
2022-11-17T22:46:28.592Z,8.93
2022-11-17T22:48:57.835Z,8.94
2022-11-17T22:51:43.759Z,8.90
2022-11-17T22:54:13.221Z,8.91
2022-11-17T22:56:41.269Z,8.90
2022-11-17T22:59:10.108Z,8.86
2022-11-17T23:01:38.575Z,8.86
2022-11-17T23:04:07.842Z,8.76
2022-11-17T23:06:35.973Z,8.68
2022-11-17T23:09:04.097Z,8.62
2022-11-17T23:11:38.187Z,8.58
2022-11-17T23:14:08.056Z,8.54
2022-11-17T23:16:36.878Z,8.52
2022-11-17T23:19:05.840Z,8.53
2022-11-17T23:21:34.272Z,8.60
2022-11-17T23:24:02.344Z,8.59
2022-11-17T23:26:30.472Z,8.55
2022-11-17T23:29:00.931Z,8.52
2022-11-17T23:31:29.094Z,8.52
2022-11-17T23:33:57.183Z,8.53
2022-11-17T23:36:26.058Z,8.51
2022-11-17T23:38:56.822Z,8.49
2022-11-17T23:41:24.937Z,8.47
2022-11-17T23:43:54.887Z,8.44
2022-11-17T23:46:25.806Z,8.42
2022-11-17T23:48:54.318Z,8.58
2022-11-17T23:51:24.050Z,8.59
2022-11-17T23:53:52.581Z,8.60
2022-11-17T23:56:21.542Z,8.47
2022-11-17T23:58:49.842Z,8.44
